createdAt,value
2023-02-06T00:01:55.003Z,5.72
2023-02-06T00:05:45.448Z,5.97
2023-02-06T00:08:22.001Z,6.88
2023-02-06T00:10:55.803Z,8.35
2023-02-06T00:13:30.753Z,6.05
2023-02-06T00:16:07.144Z,5.53
2023-02-06T00:22:25.270Z,5.95
2023-02-06T00:25:07.891Z,7.10
2023-02-06T00:31:30.265Z,8.98
2023-02-06T00:38:16.240Z,6.25
2023-02-06T00:41:06.932Z,6.90
2023-02-06T00:43:38.413Z,7.70
2023-02-06T00:46:17.790Z,7.03
2023-02-06T00:48:57.244Z,6.13
2023-02-06T00:51:43.908Z,5.65
2023-02-06T00:54:24.649Z,7.43
2023-02-06T00:57:06.535Z,6.22
2023-02-06T01:02:25.112Z,5.68
2023-02-06T01:08:56.421Z,6.90
2023-02-06T01:11:57.673Z,6.07
2023-02-06T01:14:42.533Z,6.40
2023-02-06T01:17:27.831Z,4.32
2023-02-06T01:22:45.580Z,6.43
2023-02-06T01:26:20.068Z,4.60
2023-02-06T01:29:05.888Z,6.18
2023-02-06T01:31:39.047Z,6.13
2023-02-06T01:34:22.404Z,5.70
2023-02-06T01:38:38.005Z,7.30
2023-02-06T01:43:44.307Z,6.38
2023-02-06T01:46:26.417Z,5.20
2023-02-06T01:48:59.908Z,4.90
2023-02-06T01:51:40.477Z,5.15
2023-02-06T01:54:21.944Z,6.50
2023-02-06T01:58:01.148Z,7.18
2023-02-06T02:00:33.319Z,3.95
2023-02-06T02:03:20.052Z,5.18
2023-02-06T02:09:55.584Z,6.75
2023-02-06T02:12:45.384Z,8.43
2023-02-06T02:16:04.392Z,7.72
2023-02-06T02:19:09.762Z,5.18
2023-02-06T02:22:05.145Z,6.82
2023-02-06T02:25:09.169Z,4.70
2023-02-06T02:28:29.078Z,6.93
2023-02-06T02:31:36.626Z,5.03
2023-02-06T02:34:44.543Z,10.40
2023-02-06T02:38:01.049Z,5.45
2023-02-06T02:40:54.195Z,5.55
2023-02-06T02:43:53.591Z,4.95
2023-02-06T02:46:46.946Z,5.43
2023-02-06T02:49:33.409Z,5.57
2023-02-06T02:52:21.360Z,7.20
2023-02-06T02:55:09.669Z,6.05
2023-02-06T02:57:51.984Z,6.00
2023-02-06T03:01:05.986Z,5.28
2023-02-06T03:03:52.499Z,5.07
2023-02-06T03:07:15.750Z,4.30
2023-02-06T03:10:34.649Z,4.68
2023-02-06T03:13:46.369Z,5.25
2023-02-06T03:16:33.604Z,10.57
2023-02-06T03:19:33.935Z,7.28
2023-02-06T03:22:10.470Z,4.40
2023-02-06T03:24:47.456Z,6.50
2023-02-06T03:27:25.046Z,6.78
2023-02-06T03:29:57.111Z,7.15
2023-02-06T03:40:23.272Z,10.40
2023-02-06T03:43:09.262Z,11.93
2023-02-06T03:45:47.653Z,10.60
2023-02-06T03:48:51.640Z,11.98
2023-02-06T03:51:29.419Z,10.00
2023-02-06T03:58:26.619Z,12.30
2023-02-06T04:01:03.634Z,13.68
2023-02-06T04:03:34.823Z,16.52
2023-02-06T04:06:08.256Z,15.90
2023-02-06T04:12:01.924Z,14.15
2023-02-06T04:15:50.383Z,14.23
2023-02-06T04:18:43.987Z,15.98
2023-02-06T04:21:17.047Z,14.07
2023-02-06T04:23:52.902Z,13.65
2023-02-06T04:26:34.084Z,15.38
2023-02-06T04:29:48.349Z,14.90
2023-02-06T04:32:21.755Z,15.50
2023-02-06T04:34:58.026Z,15.50
2023-02-06T04:37:32.903Z,13.85
2023-02-06T04:41:25.411Z,15.23
2023-02-06T04:44:01.031Z,17.52
2023-02-06T04:46:33.382Z,17.67
2023-02-06T04:49:13.628Z,17.60
2023-02-06T04:51:58.142Z,14.57
2023-02-06T04:54:30.162Z,15.77
2023-02-06T04:57:08.304Z,14.80
2023-02-06T04:59:47.630Z,16.02
2023-02-06T05:05:14.426Z,17.67
2023-02-06T05:11:31.090Z,15.43
2023-02-06T05:14:10.377Z,17.65
2023-02-06T05:16:53.411Z,14.38
2023-02-06T05:19:30.190Z,15.80
2023-02-06T05:22:05.767Z,17.55
2023-02-06T05:24:51.041Z,16.42
2023-02-06T05:27:28.580Z,14.52
2023-02-06T05:30:06.648Z,15.60
2023-02-06T05:32:52.028Z,16.00
2023-02-06T05:35:50.114Z,16.70
2023-02-06T05:38:20.040Z,20.45
2023-02-06T05:40:54.157Z,14.30
2023-02-06T05:47:12.495Z,19.45
2023-02-06T05:49:40.500Z,14.75
2023-02-06T05:53:06.818Z,16.77
2023-02-06T06:00:12.856Z,14.18
2023-02-06T06:07:16.368Z,13.95
2023-02-06T06:09:49.525Z,17.10
2023-02-06T06:12:19.293Z,15.98
2023-02-06T06:14:47.311Z,12.85
2023-02-06T06:21:26.612Z,14.80
2023-02-06T06:23:56.578Z,14.73
2023-02-06T06:26:31.456Z,16.92
2023-02-06T06:29:23.784Z,14.75
2023-02-06T06:32:27.135Z,14.43
2023-02-06T06:35:02.956Z,15.77
2023-02-06T06:37:43.542Z,12.50
2023-02-06T06:40:13.615Z,17.25
2023-02-06T06:42:41.991Z,14.13
2023-02-06T06:45:10.469Z,16.63
2023-02-06T06:47:38.539Z,16.05
2023-02-06T06:50:07.155Z,15.80
2023-02-06T06:52:36.264Z,15.15
2023-02-06T06:55:05.144Z,12.82
2023-02-06T06:57:35.656Z,17.55
2023-02-06T07:00:08.380Z,15.52
2023-02-06T07:02:37.330Z,16.55
2023-02-06T07:05:08.692Z,16.25
2023-02-06T07:07:37.985Z,15.95
2023-02-06T07:10:08.195Z,17.27
2023-02-06T07:12:46.313Z,15.13
2023-02-06T07:15:14.356Z,15.07
2023-02-06T07:17:46.082Z,16.45
2023-02-06T07:20:13.740Z,19.25
2023-02-06T07:22:43.700Z,21.40
2023-02-06T07:25:11.718Z,25.92
2023-02-06T07:27:39.409Z,27.67
2023-02-06T07:30:07.790Z,30.48
2023-02-06T07:32:48.834Z,16.23
2023-02-06T07:35:26.034Z,18.15
2023-02-06T07:38:04.732Z,17.67
2023-02-06T07:40:47.032Z,17.23
2023-02-06T07:43:39.676Z,16.00
2023-02-06T07:46:10.839Z,18.83
2023-02-06T07:48:54.901Z,18.17
2023-02-06T07:51:25.499Z,18.95
2023-02-06T07:54:02.770Z,21.83
2023-02-06T07:56:30.675Z,17.67
2023-02-06T07:59:03.489Z,19.23
2023-02-06T08:01:45.541Z,22.10
2023-02-06T08:04:43.562Z,14.98
2023-02-06T08:07:17.382Z,17.30
2023-02-06T08:09:45.105Z,13.40
2023-02-06T08:12:12.763Z,15.05
2023-02-06T08:14:40.511Z,12.45
2023-02-06T08:17:08.355Z,11.65
2023-02-06T08:19:35.837Z,12.13
2023-02-06T08:22:03.472Z,10.70
2023-02-06T08:24:31.617Z,11.90
2023-02-06T08:27:01.671Z,11.52
2023-02-06T08:29:29.438Z,9.90
2023-02-06T08:31:57.105Z,10.45
2023-02-06T08:34:24.655Z,13.48
2023-02-06T08:36:52.214Z,12.18
2023-02-06T08:39:19.767Z,8.85
2023-02-06T08:41:47.628Z,16.38
2023-02-06T08:44:17.207Z,34.47
2023-02-06T08:46:46.808Z,12.77
2023-02-06T08:49:19.673Z,11.88
2023-02-06T08:51:49.273Z,7.95
2023-02-06T08:54:19.285Z,8.73
2023-02-06T08:56:47.488Z,8.40
2023-02-06T08:59:16.593Z,8.13
2023-02-06T09:01:45.725Z,8.73
2023-02-06T09:04:14.242Z,7.88
2023-02-06T09:06:46.422Z,7.38
2023-02-06T09:09:13.889Z,8.82
2023-02-06T09:11:43.219Z,8.18
2023-02-06T09:14:15.174Z,8.82
2023-02-06T09:16:43.438Z,7.15
2023-02-06T09:19:12.982Z,7.90
2023-02-06T09:21:40.472Z,6.78
2023-02-06T09:24:09.473Z,8.48
2023-02-06T09:26:53.349Z,6.97
2023-02-06T09:29:25.782Z,9.25
2023-02-06T09:31:53.190Z,8.32
2023-02-06T09:34:20.500Z,6.85
2023-02-06T09:36:47.937Z,6.72
2023-02-06T09:39:15.331Z,10.88
2023-02-06T09:41:46.601Z,7.38
2023-02-06T09:44:18.725Z,9.70
2023-02-06T09:46:54.781Z,10.40
2023-02-06T09:49:35.902Z,9.35
2023-02-06T09:52:20.867Z,9.40
2023-02-06T09:55:07.583Z,9.40
2023-02-06T09:57:46.370Z,7.53
2023-02-06T10:00:42.620Z,6.70
2023-02-06T10:03:28.050Z,6.97
2023-02-06T10:06:22.132Z,8.70
2023-02-06T10:08:49.569Z,7.63
2023-02-06T10:11:33.709Z,6.93
2023-02-06T10:14:06.781Z,9.10
2023-02-06T10:16:45.142Z,6.28
2023-02-06T10:19:43.920Z,8.02
2023-02-06T10:22:21.089Z,8.15
2023-02-06T10:25:14.138Z,7.18
2023-02-06T10:27:44.289Z,8.05
2023-02-06T10:30:18.135Z,7.38
2023-02-06T10:32:50.996Z,6.38
2023-02-06T10:35:27.057Z,7.93
2023-02-06T10:38:09.674Z,8.80
2023-02-06T10:40:58.168Z,5.15
2023-02-06T10:43:40.628Z,6.18
2023-02-06T10:46:34.825Z,8.00
2023-02-06T10:49:11.025Z,9.00
2023-02-06T10:51:44.462Z,6.72
2023-02-06T10:54:15.948Z,9.38
2023-02-06T10:56:46.878Z,7.10
2023-02-06T10:59:35.307Z,8.63
2023-02-06T11:02:13.700Z,8.80
2023-02-06T11:04:47.581Z,10.07
2023-02-06T11:07:25.203Z,7.50
2023-02-06T11:09:53.485Z,7.53
2023-02-06T11:12:29.891Z,6.88
2023-02-06T11:15:02.262Z,7.30
2023-02-06T11:17:30.691Z,9.40
2023-02-06T11:20:20.262Z,7.95
2023-02-06T11:22:52.977Z,6.93
2023-02-06T11:25:36.526Z,7.40
2023-02-06T11:28:15.586Z,7.68
2023-02-06T11:30:55.272Z,6.85
2023-02-06T11:33:47.339Z,8.30
2023-02-06T11:36:31.658Z,11.43
2023-02-06T11:39:33.109Z,9.50
2023-02-06T11:42:00.555Z,10.32
2023-02-06T11:44:35.162Z,9.57
2023-02-06T11:47:35.047Z,8.33
2023-02-06T11:50:12.445Z,10.43
2023-02-06T11:52:46.931Z,8.43
2023-02-06T11:55:44.842Z,8.32
2023-02-06T11:58:24.029Z,8.35
2023-02-06T12:00:54.753Z,6.32
2023-02-06T12:03:41.045Z,6.75
2023-02-06T12:06:15.249Z,8.07
2023-02-06T12:08:55.024Z,7.82
2023-02-06T12:11:24.798Z,6.63
2023-02-06T12:13:59.001Z,6.10
2023-02-06T12:16:27.977Z,9.68
2023-02-06T12:18:57.970Z,8.52
2023-02-06T12:21:48.891Z,7.85
2023-02-06T12:24:37.734Z,10.10
2023-02-06T12:27:20.699Z,8.38
2023-02-06T12:30:29.400Z,5.93
2023-02-06T12:33:48.003Z,6.82
2023-02-06T12:36:20.685Z,9.57
2023-02-06T12:38:50.790Z,5.93
2023-02-06T12:41:46.049Z,7.43
2023-02-06T12:44:35.087Z,7.45
2023-02-06T12:47:23.957Z,7.47
2023-02-06T12:49:57.058Z,7.78
2023-02-06T12:52:38.878Z,9.55
2023-02-06T12:55:18.251Z,9.07
2023-02-06T12:57:46.118Z,8.45
2023-02-06T13:00:32.835Z,9.23
2023-02-06T13:03:05.989Z,6.07
2023-02-06T13:05:39.472Z,7.57
2023-02-06T13:08:12.716Z,10.15
2023-02-06T13:10:41.539Z,8.38
2023-02-06T13:13:27.127Z,6.05
2023-02-06T13:15:56.740Z,7.32
2023-02-06T13:18:42.360Z,6.78
2023-02-06T13:21:21.985Z,8.45
2023-02-06T13:24:13.573Z,9.43
2023-02-06T13:26:48.839Z,6.13
2023-02-06T13:29:30.175Z,5.97
2023-02-06T13:32:12.597Z,6.05
2023-02-06T13:34:46.591Z,10.30
2023-02-06T13:37:26.075Z,7.03
2023-02-06T13:40:12.859Z,6.80
2023-02-06T13:43:03.267Z,10.02
2023-02-06T13:45:41.665Z,5.95
2023-02-06T13:48:40.329Z,7.35
2023-02-06T13:51:32.180Z,7.63
2023-02-06T13:54:21.090Z,7.13
2023-02-06T13:57:19.221Z,6.72
2023-02-06T14:00:02.263Z,8.48
2023-02-06T14:02:42.137Z,7.47
2023-02-06T14:05:14.398Z,9.32
2023-02-06T14:08:20.233Z,8.18
2023-02-06T14:11:05.734Z,5.22
2023-02-06T14:13:39.913Z,7.20
2023-02-06T14:16:41.173Z,6.25
2023-02-06T14:19:46.697Z,6.32
2023-02-06T14:22:29.093Z,8.02
2023-02-06T14:25:18.296Z,9.90
2023-02-06T14:28:02.422Z,6.82
2023-02-06T14:30:50.503Z,8.35
2023-02-06T14:33:40.629Z,8.10
2023-02-06T14:36:18.115Z,8.93
2023-02-06T14:38:59.512Z,7.53
2023-02-06T14:41:31.768Z,7.63
2023-02-06T14:44:02.287Z,9.45
2023-02-06T14:46:29.932Z,9.23
2023-02-06T14:48:59.589Z,8.02
2023-02-06T14:51:36.970Z,9.10
2023-02-06T14:54:06.967Z,10.35
2023-02-06T14:56:37.183Z,10.38
2023-02-06T14:59:13.860Z,8.57
2023-02-06T15:01:43.893Z,9.20
2023-02-06T15:04:14.513Z,12.20
2023-02-06T15:06:58.760Z,7.55
2023-02-06T15:09:33.721Z,8.77
2023-02-06T15:12:04.488Z,8.70
2023-02-06T15:14:34.368Z,12.55
2023-02-06T15:17:02.966Z,15.50
2023-02-06T15:19:33.006Z,14.73
2023-02-06T15:22:07.030Z,11.13
2023-02-06T15:24:37.278Z,9.43
2023-02-06T15:27:07.415Z,10.95
2023-02-06T15:29:34.818Z,8.82
2023-02-06T15:32:07.879Z,11.82
2023-02-06T15:34:35.531Z,8.65
2023-02-06T15:37:20.243Z,9.55
2023-02-06T15:39:48.307Z,7.82
2023-02-06T15:42:16.585Z,10.75
2023-02-06T15:44:44.448Z,9.35
2023-02-06T15:47:16.654Z,10.43
2023-02-06T15:49:47.597Z,12.18
2023-02-06T15:52:32.584Z,10.05
2023-02-06T15:55:00.882Z,9.85
2023-02-06T15:57:35.436Z,10.35
2023-02-06T16:00:09.692Z,8.75
2023-02-06T16:02:43.594Z,10.23
2023-02-06T16:05:25.218Z,10.30
2023-02-06T16:07:52.787Z,9.25
2023-02-06T16:10:24.223Z,10.05
2023-02-06T16:12:52.236Z,8.65
2023-02-06T16:15:35.807Z,11.77
2023-02-06T16:18:23.483Z,8.93
2023-02-06T16:20:51.067Z,12.68
2023-02-06T16:23:28.314Z,14.77
2023-02-06T16:26:03.653Z,12.48
2023-02-06T16:28:31.044Z,10.65
2023-02-06T16:31:02.200Z,10.52
2023-02-06T16:33:41.332Z,10.75
2023-02-06T16:36:13.143Z,12.93
2023-02-06T16:38:43.123Z,11.40
2023-02-06T16:41:29.563Z,10.85
2023-02-06T16:44:45.320Z,11.37
2023-02-06T16:47:19.176Z,14.80
2023-02-06T16:49:52.213Z,12.60
2023-02-06T16:52:24.416Z,10.07
2023-02-06T16:54:53.399Z,10.85
2023-02-06T16:57:29.738Z,13.07
2023-02-06T16:59:58.297Z,12.55
2023-02-06T17:02:27.441Z,12.05
2023-02-06T17:04:55.431Z,14.27
2023-02-06T17:07:25.115Z,12.30
2023-02-06T17:09:55.586Z,13.32
2023-02-06T17:12:23.249Z,12.65
2023-02-06T17:14:51.051Z,11.85
2023-02-06T17:17:20.706Z,11.43
2023-02-06T17:19:50.125Z,10.55
2023-02-06T17:22:18.503Z,14.18
2023-02-06T17:24:51.062Z,10.90
2023-02-06T17:27:21.415Z,13.77
2023-02-06T17:29:50.023Z,11.90
2023-02-06T17:32:22.190Z,11.68
2023-02-06T17:34:54.489Z,12.68
2023-02-06T17:37:22.107Z,11.98
2023-02-06T17:39:50.986Z,11.85
2023-02-06T17:42:19.325Z,13.65
2023-02-06T17:44:47.260Z,14.55
2023-02-06T17:47:14.719Z,12.35
2023-02-06T17:49:42.395Z,12.15
2023-02-06T17:52:11.102Z,14.20
2023-02-06T17:54:39.664Z,12.38
2023-02-06T17:57:07.302Z,13.93
2023-02-06T17:59:39.377Z,11.13
2023-02-06T18:02:14.847Z,12.68
2023-02-06T18:04:51.007Z,13.70
2023-02-06T18:07:31.765Z,13.27
2023-02-06T18:10:12.875Z,12.13
2023-02-06T18:12:52.850Z,11.10
2023-02-06T18:15:35.656Z,14.73
2023-02-06T18:18:06.933Z,12.45
2023-02-06T18:20:37.139Z,15.48
2023-02-06T18:23:07.407Z,13.73
2023-02-06T18:25:38.859Z,15.48
2023-02-06T18:28:10.699Z,13.50
2023-02-06T18:30:44.852Z,15.18
2023-02-06T18:33:14.534Z,15.63
2023-02-06T18:35:46.686Z,16.65
2023-02-06T18:38:14.592Z,17.95
2023-02-06T18:40:46.850Z,14.50
2023-02-06T18:43:14.863Z,16.92
2023-02-06T18:45:42.863Z,19.40
2023-02-06T18:48:13.035Z,20.73
2023-02-06T18:50:42.187Z,22.83
2023-02-06T18:53:09.712Z,24.90
2023-02-06T18:55:37.357Z,25.85
2023-02-06T18:58:05.632Z,21.15
2023-02-06T19:00:37.841Z,21.08
2023-02-06T19:03:18.219Z,20.48
2023-02-06T19:05:46.080Z,18.75
2023-02-06T19:08:16.034Z,22.67
2023-02-06T19:10:43.472Z,23.65
2023-02-06T19:13:10.993Z,19.45
2023-02-06T19:15:38.429Z,14.77
2023-02-06T19:18:06.152Z,15.68
2023-02-06T19:20:33.564Z,14.60
2023-02-06T19:23:00.974Z,14.73
2023-02-06T19:25:28.464Z,15.63
2023-02-06T19:27:56.911Z,15.63
2023-02-06T19:30:24.578Z,15.70
2023-02-06T19:32:52.485Z,13.55
2023-02-06T19:35:20.384Z,14.82
2023-02-06T19:37:47.827Z,14.73
2023-02-06T19:40:15.408Z,16.15
2023-02-06T19:42:45.367Z,14.40
2023-02-06T19:45:12.879Z,18.33
2023-02-06T19:47:40.481Z,13.18
2023-02-06T19:50:10.212Z,17.20
2023-02-06T19:52:38.907Z,16.10
2023-02-06T19:55:12.526Z,17.70
2023-02-06T19:57:40.769Z,15.23
2023-02-06T20:00:09.427Z,15.48
2023-02-06T20:02:39.749Z,14.82
2023-02-06T20:08:13.991Z,16.88
2023-02-06T20:10:44.285Z,17.67
2023-02-06T20:13:14.579Z,18.38
2023-02-06T20:15:42.263Z,15.63
2023-02-06T20:18:21.474Z,15.25
2023-02-06T20:20:49.847Z,14.45
2023-02-06T20:23:17.688Z,15.05
2023-02-06T20:25:45.573Z,15.73
2023-02-06T20:28:16.095Z,15.88
2023-02-06T20:30:46.239Z,17.13
2023-02-06T20:33:14.000Z,17.55
2023-02-06T20:35:45.833Z,16.65
2023-02-06T20:38:13.611Z,16.17
2023-02-06T20:40:43.843Z,17.27
2023-02-06T20:43:11.544Z,1.00
2023-02-06T20:45:49.547Z,16.85
2023-02-06T20:48:26.229Z,14.93
2023-02-06T20:50:58.669Z,15.95
2023-02-06T20:53:26.974Z,14.65
2023-02-06T20:56:00.766Z,16.75
2023-02-06T21:05:28.249Z,18.27
2023-02-06T21:08:32.512Z,16.10
2023-02-06T21:11:08.552Z,18.02
2023-02-06T21:13:50.542Z,16.77
2023-02-06T21:16:20.645Z,15.70
2023-02-06T21:19:09.939Z,16.90
2023-02-06T21:21:56.707Z,14.85
2023-02-06T21:24:39.067Z,16.42
2023-02-06T21:27:23.078Z,19.17
2023-02-06T21:30:17.354Z,15.38
2023-02-06T21:32:47.695Z,18.45
2023-02-06T21:36:08.280Z,17.83
2023-02-06T21:39:36.162Z,18.38
2023-02-06T21:42:34.443Z,17.77
2023-02-06T21:45:04.591Z,17.40
2023-02-06T21:51:43.804Z,17.33
2023-02-06T21:57:53.382Z,15.65
2023-02-06T22:00:40.967Z,16.52
2023-02-06T22:04:55.066Z,17.23
2023-02-06T22:07:20.089Z,18.05
2023-02-06T22:09:48.409Z,17.50
2023-02-06T22:12:16.137Z,16.30
2023-02-06T22:14:46.045Z,16.40
2023-02-06T22:17:13.692Z,17.13
2023-02-06T22:19:49.226Z,18.30
2023-02-06T22:22:20.194Z,18.83
2023-02-06T22:25:01.382Z,16.60
2023-02-06T22:27:38.142Z,16.85
2023-02-06T22:30:07.220Z,18.25
2023-02-06T22:32:40.377Z,17.73
2023-02-06T22:35:08.345Z,19.35
2023-02-06T22:37:35.872Z,18.17
2023-02-06T22:40:03.578Z,18.48
2023-02-06T22:42:31.140Z,17.30
2023-02-06T22:44:58.764Z,20.45
2023-02-06T22:47:26.256Z,17.92
2023-02-06T22:49:53.618Z,18.23
2023-02-06T22:52:39.255Z,17.02
2023-02-06T22:55:07.308Z,15.85
2023-02-06T22:57:37.251Z,17.60
2023-02-06T23:00:09.399Z,17.15
2023-02-06T23:02:38.400Z,17.83
2023-02-06T23:05:06.334Z,18.23
2023-02-06T23:07:33.827Z,17.33
2023-02-06T23:10:01.273Z,15.88
2023-02-06T23:12:28.740Z,16.33
2023-02-06T23:14:56.295Z,16.48
2023-02-06T23:17:23.804Z,17.67
2023-02-06T23:19:51.251Z,18.08
2023-02-06T23:22:18.689Z,17.63
2023-02-06T23:24:46.203Z,15.10
2023-02-06T23:27:13.813Z,17.40
2023-02-06T23:29:41.334Z,15.95
2023-02-06T23:32:08.719Z,17.75
2023-02-06T23:34:37.555Z,20.63
2023-02-06T23:37:06.827Z,17.98
2023-02-06T23:39:34.255Z,6.30
2023-02-06T23:42:01.752Z,18.90
2023-02-06T23:44:29.223Z,19.05
2023-02-06T23:46:59.439Z,20.10
2023-02-06T23:49:26.886Z,16.33
2023-02-06T23:51:54.460Z,17.90
2023-02-06T23:54:21.949Z,19.05
2023-02-06T23:56:49.536Z,16.85
2023-02-06T23:59:17.090Z,16.50
